KXJ YLHI-YSBK
Flight info
| Callsign | KXJ |
|---|---|
| Flight time | 3h 12m |
| Altitude | 18000 |
| Route | LHI B450 TESAT |
| Aircraft | BT36/L-BDFGLORY/S |
Departure
| Time | 2026-05-06 23:23 |
|---|---|
| Airport | Lord Howe Island Airport (YLHI) |
Arrival
| Time | 2026-05-07 02:35 |
|---|---|
| Airport | Sydney Bankstown Airport (YSBK) |
| Time | Latitude | Longitude | Altitude | Speed | Heading |
|---|---|---|---|---|---|
| 2026-05-06 23:08 | -31.54055 | 159.07907 | 26 ft | 0 kts | 21° |
| 2026-05-06 23:19 | -31.54055 | 159.07906 | 26 ft | 0 kts | 21° |
| 2026-05-06 23:20 | -31.54054 | 159.07907 | 26 ft | 2 kts | 19° |
| 2026-05-06 23:20 | -31.54063 | 159.07897 | 29 ft | 7 kts | 288° |
| 2026-05-06 23:21 | -31.54033 | 159.07857 | 26 ft | 7 kts | 335° |
| 2026-05-06 23:21 | -31.53994 | 159.07849 | 25 ft | 0 kts | 29° |
| 2026-05-06 23:21 | -31.53988 | 159.07854 | 25 ft | 4 kts | 31° |
| 2026-05-06 23:22 | -31.53939 | 159.07851 | 21 ft | 6 kts | 326° |
| 2026-05-06 23:22 | -31.53936 | 159.07846 | 21 ft | 0 kts | 289° |
| 2026-05-06 23:22 | -31.53935 | 159.07843 | 21 ft | 6 kts | 289° |
| 2026-05-06 23:23 | -31.53779 | 159.07438 | 22 ft | 97 kts | 293° |
| 2026-05-06 23:23 | -31.53490 | 159.06629 | 463 ft | 106 kts | 284° |
| 2026-05-06 23:23 | -31.53060 | 159.05982 | 1020 ft | 105 kts | 334° |
| 2026-05-06 23:23 | -31.52376 | 159.05963 | 1615 ft | 105 kts | 21° |
| 2026-05-06 23:24 | -31.51839 | 159.06597 | 2056 ft | 121 kts | 64° |
| 2026-05-06 23:24 | -31.51674 | 159.07600 | 2609 ft | 127 kts | 86° |
| 2026-05-06 23:24 | -31.51785 | 159.08622 | 3236 ft | 124 kts | 111° |
| 2026-05-06 23:24 | -31.52355 | 159.09374 | 3767 ft | 129 kts | 155° |
| 2026-05-06 23:25 | -31.53249 | 159.09437 | 4194 ft | 135 kts | 207° |
| 2026-05-06 23:25 | -31.53847 | 159.08603 | 4553 ft | 135 kts | 247° |
| 2026-05-06 23:25 | -31.54220 | 159.07707 | 5322 ft | 117 kts | 252° |
| 2026-05-06 23:25 | -31.54553 | 159.06810 | 5835 ft | 122 kts | 255° |
| 2026-05-06 23:26 | -31.54821 | 159.05902 | 6489 ft | 112 kts | 255° |
| 2026-05-06 23:26 | -31.55021 | 159.05053 | 7063 ft | 105 kts | 265° |
| 2026-05-06 23:26 | -31.55233 | 159.04218 | 7574 ft | 111 kts | 257° |
| 2026-05-06 23:26 | -31.55487 | 159.03263 | 7765 ft | 141 kts | 261° |
| 2026-05-06 23:27 | -31.55777 | 159.02035 | 7753 ft | 170 kts | 258° |
| 2026-05-06 23:27 | -31.56184 | 159.00652 | 7738 ft | 188 kts | 254° |
| 2026-05-06 23:27 | -31.56674 | 158.99248 | 7999 ft | 185 kts | 252° |
| 2026-05-06 23:27 | -31.57174 | 158.97865 | 8252 ft | 183 kts | 253° |
| 2026-05-06 23:28 | -31.57668 | 158.96435 | 8203 ft | 196 kts | 254° |
| 2026-05-06 23:28 | -31.58163 | 158.94900 | 8095 ft | 205 kts | 255° |
| 2026-05-06 23:28 | -31.58668 | 158.93342 | 8287 ft | 195 kts | 254° |
| 2026-05-06 23:28 | -31.59151 | 158.91936 | 8786 ft | 178 kts | 254° |
| 2026-05-06 23:29 | -31.59603 | 158.90634 | 9294 ft | 167 kts | 255° |
| 2026-05-06 23:29 | -31.60024 | 158.89393 | 9807 ft | 160 kts | 256° |
| 2026-05-06 23:29 | -31.60419 | 158.88198 | 10289 ft | 154 kts | 256° |
| 2026-05-06 23:29 | -31.60799 | 158.87038 | 10756 ft | 152 kts | 257° |
| 2026-05-06 23:30 | -31.61203 | 158.85792 | 10899 ft | 168 kts | 256° |
| 2026-05-06 23:30 | -31.61636 | 158.84519 | 11193 ft | 172 kts | 255° |
| 2026-05-06 23:30 | -31.62091 | 158.83211 | 11489 ft | 174 kts | 255° |
| 2026-05-06 23:30 | -31.62546 | 158.81886 | 11782 ft | 176 kts | 256° |
| 2026-05-06 23:31 | -31.62993 | 158.80548 | 12078 ft | 177 kts | 257° |
| 2026-05-06 23:31 | -31.63436 | 158.79199 | 12377 ft | 178 kts | 257° |
| 2026-05-06 23:31 | -31.63881 | 158.77845 | 12683 ft | 178 kts | 257° |
| 2026-05-06 23:31 | -31.64336 | 158.76486 | 12988 ft | 179 kts | 256° |
| 2026-05-06 23:32 | -31.64797 | 158.75122 | 13304 ft | 180 kts | 256° |
| 2026-05-06 23:32 | -31.65261 | 158.73756 | 13617 ft | 181 kts | 257° |
| 2026-05-06 23:32 | -31.65721 | 158.72383 | 13920 ft | 181 kts | 257° |
| 2026-05-06 23:32 | -31.66179 | 158.71006 | 14197 ft | 181 kts | 257° |
| 2026-05-06 23:33 | -31.66636 | 158.69624 | 14487 ft | 182 kts | 257° |
| 2026-05-06 23:33 | -31.67099 | 158.68237 | 14766 ft | 182 kts | 257° |
| 2026-05-06 23:33 | -31.67564 | 158.66848 | 15053 ft | 183 kts | 257° |
| 2026-05-06 23:33 | -31.68031 | 158.65456 | 15345 ft | 183 kts | 257° |
| 2026-05-06 23:34 | -31.68497 | 158.64061 | 15635 ft | 184 kts | 257° |
| 2026-05-06 23:34 | -31.68962 | 158.62666 | 15932 ft | 184 kts | 257° |
| 2026-05-06 23:34 | -31.69430 | 158.61260 | 16234 ft | 184 kts | 258° |
| 2026-05-06 23:34 | -31.69891 | 158.59873 | 16529 ft | 185 kts | 258° |
| 2026-05-06 23:35 | -31.70360 | 158.58468 | 16832 ft | 185 kts | 258° |
| 2026-05-06 23:35 | -31.70829 | 158.57058 | 17143 ft | 185 kts | 258° |
| 2026-05-06 23:35 | -31.71301 | 158.55643 | 17454 ft | 186 kts | 258° |
| 2026-05-06 23:35 | -31.71772 | 158.54225 | 17768 ft | 186 kts | 258° |
| 2026-05-06 23:36 | -31.72239 | 158.52820 | 18086 ft | 187 kts | 258° |
| 2026-05-06 23:36 | -31.72711 | 158.51398 | 18393 ft | 187 kts | 258° |
| 2026-05-06 23:36 | -31.73185 | 158.49973 | 18678 ft | 187 kts | 258° |
| 2026-05-06 23:36 | -31.73659 | 158.48548 | 18946 ft | 188 kts | 258° |
| 2026-05-06 23:37 | -31.74133 | 158.47120 | 19226 ft | 188 kts | 258° |
| 2026-05-06 23:37 | -31.74621 | 158.45628 | 19174 ft | 204 kts | 258° |
| 2026-05-06 23:37 | -31.75149 | 158.44023 | 19075 ft | 217 kts | 257° |
| 2026-05-06 23:37 | -31.75704 | 158.42397 | 18861 ft | 203 kts | 257° |
| 2026-05-06 23:38 | -31.76202 | 158.40959 | 18620 ft | 178 kts | 258° |
| 2026-05-06 23:38 | -31.76626 | 158.39664 | 18385 ft | 162 kts | 260° |
| 2026-05-06 23:38 | -31.77010 | 158.38415 | 18130 ft | 175 kts | 261° |
| 2026-05-06 23:38 | -31.77456 | 158.36955 | 17890 ft | 202 kts | 258° |
| 2026-05-06 23:39 | -31.77996 | 158.35377 | 17852 ft | 212 kts | 256° |
| 2026-05-06 23:39 | -31.78566 | 158.33785 | 18001 ft | 211 kts | 256° |
| 2026-05-06 23:39 | -31.79112 | 158.32168 | 18034 ft | 215 kts | 257° |
| 2026-05-06 23:39 | -31.79645 | 158.30486 | 17917 ft | 222 kts | 258° |
| 2026-05-06 23:40 | -31.80190 | 158.28781 | 17842 ft | 222 kts | 257° |
| 2026-05-06 23:40 | -31.80736 | 158.27128 | 17927 ft | 218 kts | 256° |
| 2026-05-06 23:40 | -31.81287 | 158.25508 | 18009 ft | 220 kts | 256° |
| 2026-05-06 23:40 | -31.81839 | 158.23843 | 18140 ft | 216 kts | 258° |
| 2026-05-06 23:41 | -31.82377 | 158.22123 | 17894 ft | 229 kts | 258° |
| 2026-05-06 23:41 | -31.82923 | 158.20349 | 17838 ft | 230 kts | 258° |
| 2026-05-06 23:41 | -31.83466 | 158.18587 | 17849 ft | 228 kts | 257° |
| 2026-05-06 23:41 | -31.84010 | 158.16837 | 17848 ft | 229 kts | 257° |
| 2026-05-06 23:42 | -31.84607 | 158.15093 | 17847 ft | 231 kts | 253° |
| 2026-05-06 23:42 | -31.85259 | 158.13371 | 17891 ft | 229 kts | 254° |
| 2026-05-06 23:42 | -31.85864 | 158.11655 | 17997 ft | 225 kts | 256° |
| 2026-05-06 23:42 | -31.86416 | 158.09943 | 18020 ft | 225 kts | 257° |
| 2026-05-06 23:43 | -31.86956 | 158.08226 | 18119 ft | 223 kts | 257° |
| 2026-05-06 23:43 | -31.87506 | 158.06520 | 18118 ft | 226 kts | 256° |
| 2026-05-06 23:43 | -31.88085 | 158.04774 | 17987 ft | 232 kts | 256° |
| 2026-05-06 23:43 | -31.88680 | 158.02994 | 17876 ft | 235 kts | 256° |
| 2026-05-06 23:44 | -31.89264 | 158.01236 | 18066 ft | 227 kts | 256° |
| 2026-05-06 23:44 | -31.89823 | 157.99509 | 17948 ft | 231 kts | 256° |
| 2026-05-06 23:44 | -31.90392 | 157.97732 | 17863 ft | 232 kts | 256° |
| 2026-05-06 23:44 | -31.90969 | 157.95967 | 17861 ft | 230 kts | 256° |
| 2026-05-06 23:45 | -31.91549 | 157.94213 | 17862 ft | 229 kts | 256° |
| 2026-05-06 23:45 | -31.92125 | 157.92464 | 17864 ft | 228 kts | 256° |
| 2026-05-06 23:45 | -31.92697 | 157.90725 | 17862 ft | 228 kts | 256° |
| 2026-05-06 23:45 | -31.93269 | 157.88985 | 17864 ft | 227 kts | 256° |
| 2026-05-06 23:46 | -31.93836 | 157.87264 | 17972 ft | 223 kts | 256° |
| 2026-05-06 23:46 | -31.94395 | 157.85580 | 18051 ft | 222 kts | 256° |
| 2026-05-06 23:46 | -31.94957 | 157.83881 | 18108 ft | 220 kts | 256° |
| 2026-05-06 23:46 | -31.95512 | 157.82216 | 18269 ft | 217 kts | 256° |
| 2026-05-06 23:47 | -31.96062 | 157.80571 | 18341 ft | 218 kts | 256° |
| 2026-05-06 23:47 | -31.96623 | 157.78877 | 18220 ft | 225 kts | 256° |
| 2026-05-06 23:47 | -31.97193 | 157.77136 | 18097 ft | 230 kts | 256° |
| 2026-05-06 23:47 | -31.97760 | 157.75390 | 17973 ft | 233 kts | 256° |
| 2026-05-06 23:48 | -31.98334 | 157.73612 | 17958 ft | 230 kts | 256° |
| 2026-05-06 23:48 | -31.98901 | 157.71863 | 18020 ft | 227 kts | 256° |
| 2026-05-06 23:48 | -31.99464 | 157.70133 | 18052 ft | 225 kts | 256° |
| 2026-05-06 23:48 | -32.00024 | 157.68412 | 18051 ft | 222 kts | 256° |
| 2026-05-06 23:49 | -32.00574 | 157.66734 | 18050 ft | 217 kts | 256° |
| 2026-05-06 23:49 | -32.01117 | 157.65095 | 18057 ft | 213 kts | 256° |
| 2026-05-06 23:49 | -32.01655 | 157.63480 | 18052 ft | 210 kts | 256° |
| 2026-05-06 23:49 | -32.02190 | 157.61882 | 18055 ft | 209 kts | 256° |
| 2026-05-06 23:50 | -32.02722 | 157.60295 | 18053 ft | 208 kts | 256° |
| 2026-05-06 23:50 | -32.03784 | 157.57140 | 18066 ft | 207 kts | 256° |
| 2026-05-06 23:50 | -32.04315 | 157.55563 | 18067 ft | 207 kts | 256° |
| 2026-05-06 23:51 | -32.04845 | 157.53989 | 18070 ft | 207 kts | 256° |
| 2026-05-06 23:51 | -32.05376 | 157.52413 | 18072 ft | 207 kts | 256° |
| 2026-05-06 23:51 | -32.05907 | 157.50836 | 18071 ft | 207 kts | 256° |
| 2026-05-06 23:51 | -32.06438 | 157.49263 | 18062 ft | 207 kts | 256° |
| 2026-05-06 23:52 | -32.06969 | 157.47691 | 18065 ft | 206 kts | 256° |
| 2026-05-06 23:52 | -32.07443 | 157.46102 | 18070 ft | 204 kts | 259° |
| 2026-05-06 23:52 | -32.07857 | 157.44505 | 18073 ft | 204 kts | 261° |
| 2026-05-06 23:52 | -32.08253 | 157.42900 | 18070 ft | 203 kts | 261° |
| 2026-05-06 23:53 | -32.08671 | 157.41325 | 18070 ft | 204 kts | 259° |
| 2026-05-06 23:53 | -32.09156 | 157.39743 | 18072 ft | 205 kts | 257° |
| 2026-05-06 23:53 | -32.09677 | 157.38170 | 18074 ft | 206 kts | 256° |
| 2026-05-06 23:53 | -32.10199 | 157.36603 | 18077 ft | 205 kts | 257° |
| 2026-05-06 23:54 | -32.10708 | 157.35023 | 18022 ft | 207 kts | 257° |
| 2026-05-06 23:54 | -32.11209 | 157.33428 | 18025 ft | 206 kts | 257° |
| 2026-05-06 23:54 | -32.11708 | 157.31847 | 18038 ft | 205 kts | 257° |
| 2026-05-06 23:54 | -32.12210 | 157.30271 | 18043 ft | 205 kts | 257° |
| 2026-05-06 23:55 | -32.12546 | 157.29229 | 18042 ft | 205 kts | 257° |
| 2026-05-06 23:55 | -32.13220 | 157.27142 | 18050 ft | 205 kts | 257° |
| 2026-05-06 23:55 | -32.13724 | 157.25568 | 18048 ft | 205 kts | 257° |
| 2026-05-06 23:55 | -32.14224 | 157.23995 | 18052 ft | 205 kts | 257° |
| 2026-05-06 23:56 | -32.14723 | 157.22421 | 18050 ft | 205 kts | 257° |
| 2026-05-06 23:56 | -32.15054 | 157.21383 | 18053 ft | 205 kts | 257° |
| 2026-05-06 23:56 | -32.15559 | 157.19808 | 18052 ft | 204 kts | 257° |
| 2026-05-06 23:56 | -32.16060 | 157.18241 | 18055 ft | 204 kts | 257° |
| 2026-05-06 23:57 | -32.16560 | 157.16670 | 18054 ft | 204 kts | 258° |
| 2026-05-06 23:57 | -32.17061 | 157.15096 | 18056 ft | 204 kts | 258° |
| 2026-05-06 23:57 | -32.17560 | 157.13527 | 18059 ft | 204 kts | 258° |
| 2026-05-06 23:57 | -32.18060 | 157.11958 | 18053 ft | 204 kts | 258° |
| 2026-05-06 23:58 | -32.18559 | 157.10389 | 18058 ft | 204 kts | 258° |
| 2026-05-06 23:58 | -32.19058 | 157.08818 | 18059 ft | 204 kts | 258° |
| 2026-05-06 23:58 | -32.19557 | 157.07246 | 18060 ft | 204 kts | 258° |
| 2026-05-06 23:58 | -32.20057 | 157.05672 | 18059 ft | 204 kts | 258° |
| 2026-05-06 23:59 | -32.20557 | 157.04098 | 18060 ft | 204 kts | 258° |
| 2026-05-06 23:59 | -32.21056 | 157.02527 | 18065 ft | 205 kts | 258° |
| 2026-05-06 23:59 | -32.21550 | 157.00969 | 18063 ft | 205 kts | 258° |
| 2026-05-06 23:59 | -32.22051 | 156.99391 | 18067 ft | 205 kts | 258° |
| 2026-05-07 00:00 | -32.22550 | 156.97815 | 18067 ft | 205 kts | 258° |
| 2026-05-07 00:00 | -32.23048 | 156.96237 | 18071 ft | 205 kts | 258° |
| 2026-05-07 00:00 | -32.23549 | 156.94658 | 18071 ft | 205 kts | 258° |
| 2026-05-07 00:00 | -32.24049 | 156.93078 | 18069 ft | 205 kts | 258° |
| 2026-05-07 00:01 | -32.24547 | 156.91500 | 18070 ft | 205 kts | 258° |
| 2026-05-07 00:01 | -32.25047 | 156.89916 | 18069 ft | 205 kts | 258° |
| 2026-05-07 00:01 | -32.25547 | 156.88337 | 18066 ft | 205 kts | 258° |
| 2026-05-07 00:01 | -32.26042 | 156.86773 | 18068 ft | 205 kts | 258° |
| 2026-05-07 00:02 | -32.26540 | 156.85191 | 18068 ft | 205 kts | 258° |
| 2026-05-07 00:02 | -32.27038 | 156.83609 | 18073 ft | 205 kts | 258° |
| 2026-05-07 00:02 | -32.27536 | 156.82028 | 18077 ft | 205 kts | 258° |
| 2026-05-07 00:02 | -32.28037 | 156.80442 | 18075 ft | 205 kts | 258° |
| 2026-05-07 00:03 | -32.28536 | 156.78861 | 18075 ft | 206 kts | 258° |
| 2026-05-07 00:03 | -32.29034 | 156.77277 | 18079 ft | 206 kts | 258° |
| 2026-05-07 00:03 | -32.29532 | 156.75689 | 18075 ft | 206 kts | 258° |
| 2026-05-07 00:03 | -32.30024 | 156.74126 | 18074 ft | 206 kts | 258° |
| 2026-05-07 00:04 | -32.30524 | 156.72534 | 18079 ft | 206 kts | 258° |
| 2026-05-07 00:04 | -32.31023 | 156.70948 | 18078 ft | 206 kts | 258° |
| 2026-05-07 00:04 | -32.31520 | 156.69363 | 18081 ft | 206 kts | 258° |
| 2026-05-07 00:04 | -32.32018 | 156.67778 | 18083 ft | 206 kts | 258° |
| 2026-05-07 00:05 | -32.32515 | 156.66189 | 18078 ft | 206 kts | 258° |
| 2026-05-07 00:05 | -32.33013 | 156.64601 | 18080 ft | 206 kts | 258° |
| 2026-05-07 00:05 | -32.33510 | 156.63016 | 18076 ft | 206 kts | 258° |
| 2026-05-07 00:05 | -32.34007 | 156.61430 | 18080 ft | 206 kts | 258° |
| 2026-05-07 00:06 | -32.34503 | 156.59845 | 18081 ft | 205 kts | 258° |
| 2026-05-07 00:06 | -32.35000 | 156.58257 | 18082 ft | 205 kts | 258° |
| 2026-05-07 00:06 | -32.35489 | 156.56694 | 18082 ft | 205 kts | 258° |
| 2026-05-07 00:06 | -32.35984 | 156.55108 | 18085 ft | 205 kts | 258° |
| 2026-05-07 00:07 | -32.36479 | 156.53525 | 18085 ft | 205 kts | 258° |
| 2026-05-07 00:07 | -32.36972 | 156.51941 | 18085 ft | 205 kts | 258° |
| 2026-05-07 00:07 | -32.37467 | 156.50359 | 18091 ft | 205 kts | 258° |
| 2026-05-07 00:07 | -32.37962 | 156.48773 | 18086 ft | 205 kts | 258° |
| 2026-05-07 00:08 | -32.38455 | 156.47189 | 18091 ft | 205 kts | 258° |
| 2026-05-07 00:08 | -32.38948 | 156.45603 | 18089 ft | 205 kts | 258° |
| 2026-05-07 00:08 | -32.39443 | 156.44021 | 18092 ft | 205 kts | 258° |
| 2026-05-07 00:08 | -32.39936 | 156.42435 | 18095 ft | 205 kts | 258° |
| 2026-05-07 00:09 | -32.40429 | 156.40850 | 18094 ft | 205 kts | 258° |
| 2026-05-07 00:09 | -32.40921 | 156.39266 | 18087 ft | 205 kts | 258° |
| 2026-05-07 00:09 | -32.41412 | 156.37685 | 18090 ft | 205 kts | 258° |
| 2026-05-07 00:09 | -32.41905 | 156.36097 | 18091 ft | 205 kts | 258° |
| 2026-05-07 00:10 | -32.42396 | 156.34515 | 18092 ft | 205 kts | 258° |
| 2026-05-07 00:10 | -32.42883 | 156.32950 | 18093 ft | 205 kts | 258° |
| 2026-05-07 00:10 | -32.43375 | 156.31365 | 18096 ft | 205 kts | 258° |
| 2026-05-07 00:10 | -32.43865 | 156.29780 | 18094 ft | 205 kts | 258° |
| 2026-05-07 00:11 | -32.44355 | 156.28198 | 18097 ft | 205 kts | 258° |
| 2026-05-07 00:11 | -32.44846 | 156.26613 | 18096 ft | 205 kts | 258° |
| 2026-05-07 00:11 | -32.45336 | 156.25030 | 18097 ft | 205 kts | 258° |
| 2026-05-07 00:11 | -32.45826 | 156.23446 | 18101 ft | 205 kts | 258° |
| 2026-05-07 00:12 | -32.46316 | 156.21863 | 18099 ft | 205 kts | 258° |
| 2026-05-07 00:12 | -32.46806 | 156.20276 | 18097 ft | 205 kts | 258° |
| 2026-05-07 00:12 | -32.47296 | 156.18689 | 18100 ft | 205 kts | 258° |
| 2026-05-07 00:12 | -32.47784 | 156.17104 | 18102 ft | 205 kts | 258° |
| 2026-05-07 00:13 | -32.48274 | 156.15518 | 18102 ft | 205 kts | 258° |
| 2026-05-07 00:13 | -32.48764 | 156.13934 | 18101 ft | 205 kts | 258° |
| 2026-05-07 00:13 | -32.49248 | 156.12366 | 18103 ft | 205 kts | 258° |
| 2026-05-07 00:13 | -32.49735 | 156.10779 | 18107 ft | 205 kts | 258° |
| 2026-05-07 00:14 | -32.50223 | 156.09190 | 18107 ft | 205 kts | 258° |
| 2026-05-07 00:14 | -32.50712 | 156.07605 | 18108 ft | 205 kts | 258° |
| 2026-05-07 00:14 | -32.51202 | 156.06014 | 18108 ft | 205 kts | 258° |
| 2026-05-07 00:14 | -32.51690 | 156.04428 | 18108 ft | 205 kts | 258° |
| 2026-05-07 00:15 | -32.52178 | 156.02840 | 18108 ft | 205 kts | 259° |
| 2026-05-07 00:15 | -32.52665 | 156.01253 | 18107 ft | 205 kts | 259° |
| 2026-05-07 00:15 | -32.53151 | 155.99665 | 18111 ft | 205 kts | 258° |
| 2026-05-07 00:15 | -32.53639 | 155.98074 | 18112 ft | 205 kts | 258° |
| 2026-05-07 00:16 | -32.54127 | 155.96488 | 18113 ft | 205 kts | 259° |
| 2026-05-07 00:16 | -32.54615 | 155.94897 | 18113 ft | 205 kts | 259° |
| 2026-05-07 00:16 | -32.55096 | 155.93325 | 18115 ft | 205 kts | 259° |
| 2026-05-07 00:16 | -32.55581 | 155.91737 | 18116 ft | 205 kts | 259° |
| 2026-05-07 00:17 | -32.56068 | 155.90146 | 18115 ft | 205 kts | 259° |
| 2026-05-07 00:17 | -32.56556 | 155.88552 | 18118 ft | 205 kts | 259° |
| 2026-05-07 00:17 | -32.57044 | 155.86961 | 18119 ft | 205 kts | 259° |
| 2026-05-07 00:17 | -32.57529 | 155.85372 | 18119 ft | 205 kts | 259° |
| 2026-05-07 00:18 | -32.58012 | 155.83782 | 18121 ft | 205 kts | 259° |
| 2026-05-07 00:18 | -32.58499 | 155.82189 | 18123 ft | 205 kts | 259° |
| 2026-05-07 00:18 | -32.58986 | 155.80596 | 18120 ft | 205 kts | 259° |
| 2026-05-07 00:18 | -32.59466 | 155.79025 | 18122 ft | 205 kts | 259° |
| 2026-05-07 00:19 | -32.59950 | 155.77435 | 18125 ft | 205 kts | 259° |
| 2026-05-07 00:19 | -32.60435 | 155.75838 | 18125 ft | 205 kts | 259° |
| 2026-05-07 00:19 | -32.60919 | 155.74245 | 18129 ft | 206 kts | 259° |
| 2026-05-07 00:19 | -32.61406 | 155.72647 | 18131 ft | 206 kts | 259° |
| 2026-05-07 00:20 | -32.61893 | 155.71051 | 18130 ft | 206 kts | 259° |
| 2026-05-07 00:20 | -32.62379 | 155.69454 | 18127 ft | 206 kts | 259° |
| 2026-05-07 00:20 | -32.62864 | 155.67855 | 18126 ft | 206 kts | 259° |
| 2026-05-07 00:20 | -32.63347 | 155.66257 | 18129 ft | 206 kts | 259° |
| 2026-05-07 00:21 | -32.63831 | 155.64660 | 18127 ft | 206 kts | 259° |
| 2026-05-07 00:21 | -32.64317 | 155.63062 | 18132 ft | 206 kts | 259° |
| 2026-05-07 00:21 | -32.64805 | 155.61462 | 18132 ft | 206 kts | 259° |
| 2026-05-07 00:21 | -32.65292 | 155.59865 | 18134 ft | 206 kts | 259° |
| 2026-05-07 00:22 | -32.65773 | 155.58287 | 18134 ft | 206 kts | 259° |
| 2026-05-07 00:22 | -32.66259 | 155.56691 | 18130 ft | 206 kts | 259° |
| 2026-05-07 00:22 | -32.66746 | 155.55094 | 18131 ft | 206 kts | 259° |
| 2026-05-07 00:22 | -32.67232 | 155.53498 | 18133 ft | 206 kts | 259° |
| 2026-05-07 00:23 | -32.67718 | 155.51903 | 18129 ft | 206 kts | 259° |
| 2026-05-07 00:23 | -32.68208 | 155.50281 | 18014 ft | 210 kts | 259° |
| 2026-05-07 00:23 | -32.68700 | 155.48649 | 17967 ft | 211 kts | 259° |
| 2026-05-07 00:23 | -32.69192 | 155.47014 | 17987 ft | 210 kts | 259° |
| 2026-05-07 00:24 | -32.69682 | 155.45387 | 17987 ft | 209 kts | 259° |
| 2026-05-07 00:24 | -32.70172 | 155.43766 | 17987 ft | 208 kts | 259° |
| 2026-05-07 00:24 | -32.70655 | 155.42170 | 17976 ft | 207 kts | 259° |
| 2026-05-07 00:24 | -32.71141 | 155.40560 | 17986 ft | 207 kts | 259° |
| 2026-05-07 00:25 | -32.71627 | 155.38952 | 17987 ft | 207 kts | 259° |
| 2026-05-07 00:25 | -32.72113 | 155.37344 | 17979 ft | 207 kts | 259° |
| 2026-05-07 00:25 | -32.72598 | 155.35735 | 17975 ft | 207 kts | 259° |
| 2026-05-07 00:25 | -32.73082 | 155.34126 | 17990 ft | 207 kts | 259° |
| 2026-05-07 00:26 | -32.73566 | 155.32518 | 17987 ft | 207 kts | 259° |
| 2026-05-07 00:26 | -32.74050 | 155.30909 | 17993 ft | 207 kts | 259° |
| 2026-05-07 00:26 | -32.74533 | 155.29301 | 17991 ft | 207 kts | 259° |
| 2026-05-07 00:26 | -32.75015 | 155.27694 | 17993 ft | 206 kts | 259° |
| 2026-05-07 00:27 | -32.75495 | 155.26089 | 17992 ft | 206 kts | 259° |
| 2026-05-07 00:27 | -32.75976 | 155.24480 | 17994 ft | 206 kts | 259° |
| 2026-05-07 00:27 | -32.76458 | 155.22870 | 17991 ft | 206 kts | 259° |
| 2026-05-07 00:27 | -32.76940 | 155.21264 | 17998 ft | 206 kts | 259° |
| 2026-05-07 00:28 | -32.77417 | 155.19681 | 18003 ft | 206 kts | 259° |
| 2026-05-07 00:28 | -32.77901 | 155.18080 | 17997 ft | 206 kts | 259° |
| 2026-05-07 00:28 | -32.78387 | 155.16480 | 17994 ft | 206 kts | 259° |
| 2026-05-07 00:28 | -32.78874 | 155.14881 | 18004 ft | 206 kts | 259° |
| 2026-05-07 00:29 | -32.79362 | 155.13284 | 18002 ft | 205 kts | 259° |
| 2026-05-07 00:29 | -32.79850 | 155.11689 | 18002 ft | 205 kts | 259° |
| 2026-05-07 00:30 | -32.81327 | 155.06902 | 18001 ft | 205 kts | 259° |
| 2026-05-07 00:30 | -32.81822 | 155.05306 | 18014 ft | 205 kts | 259° |
| 2026-05-07 00:30 | -32.82318 | 155.03712 | 18008 ft | 205 kts | 258° |
| 2026-05-07 00:30 | -32.82816 | 155.02120 | 18014 ft | 206 kts | 259° |
| 2026-05-07 00:31 | -32.83315 | 155.00527 | 18011 ft | 206 kts | 258° |
| 2026-05-07 00:31 | -32.83816 | 154.98936 | 18018 ft | 206 kts | 258° |
| 2026-05-07 00:31 | -32.84318 | 154.97343 | 18010 ft | 206 kts | 258° |
| 2026-05-07 00:31 | -32.84821 | 154.95750 | 18019 ft | 206 kts | 258° |
| 2026-05-07 00:32 | -32.85328 | 154.94147 | 18010 ft | 207 kts | 258° |
| 2026-05-07 00:32 | -32.85836 | 154.92546 | 18022 ft | 207 kts | 258° |
| 2026-05-07 00:32 | -32.86338 | 154.90965 | 18022 ft | 207 kts | 258° |
| 2026-05-07 00:32 | -32.86850 | 154.89358 | 18024 ft | 207 kts | 258° |
| 2026-05-07 00:33 | -32.87362 | 154.87755 | 18030 ft | 207 kts | 258° |
| 2026-05-07 00:33 | -32.87878 | 154.86147 | 18025 ft | 207 kts | 258° |
| 2026-05-07 00:33 | -32.88392 | 154.84546 | 18019 ft | 207 kts | 258° |
| 2026-05-07 00:33 | -32.88908 | 154.82942 | 18029 ft | 207 kts | 258° |
| 2026-05-07 00:34 | -32.89427 | 154.81337 | 18033 ft | 208 kts | 258° |
| 2026-05-07 00:34 | -32.89939 | 154.79756 | 18024 ft | 208 kts | 258° |
| 2026-05-07 00:34 | -32.90459 | 154.78153 | 18034 ft | 208 kts | 258° |
| 2026-05-07 00:34 | -32.90981 | 154.76550 | 18034 ft | 208 kts | 258° |
| 2026-05-07 00:35 | -32.91504 | 154.74947 | 18030 ft | 208 kts | 258° |
| 2026-05-07 00:35 | -32.92028 | 154.73347 | 18037 ft | 208 kts | 258° |
| 2026-05-07 00:35 | -32.92554 | 154.71745 | 18031 ft | 208 kts | 258° |
| 2026-05-07 00:35 | -32.93081 | 154.70142 | 18044 ft | 208 kts | 257° |
| 2026-05-07 00:36 | -32.93610 | 154.68538 | 18037 ft | 208 kts | 257° |
| 2026-05-07 00:36 | -32.94139 | 154.66936 | 18038 ft | 208 kts | 258° |
| 2026-05-07 00:36 | -32.94671 | 154.65331 | 18038 ft | 208 kts | 257° |
| 2026-05-07 00:36 | -32.95204 | 154.63728 | 18041 ft | 208 kts | 257° |
| 2026-05-07 00:37 | -32.95737 | 154.62126 | 18043 ft | 208 kts | 257° |
| 2026-05-07 00:37 | -32.96272 | 154.60523 | 18047 ft | 208 kts | 257° |
| 2026-05-07 00:37 | -32.96811 | 154.58913 | 18051 ft | 209 kts | 257° |
| 2026-05-07 00:37 | -32.97348 | 154.57310 | 18045 ft | 209 kts | 257° |
| 2026-05-07 00:38 | -32.97888 | 154.55704 | 18048 ft | 209 kts | 257° |
| 2026-05-07 00:38 | -32.98427 | 154.54103 | 18047 ft | 209 kts | 257° |
| 2026-05-07 00:38 | -32.98967 | 154.52494 | 18047 ft | 207 kts | 259° |
| 2026-05-07 00:38 | -32.99266 | 154.50875 | 18054 ft | 202 kts | 268° |
| 2026-05-07 00:39 | -32.99495 | 154.49223 | 18048 ft | 202 kts | 268° |
| 2026-05-07 00:39 | -32.99754 | 154.47574 | 18051 ft | 203 kts | 266° |
| 2026-05-07 00:39 | -33.00067 | 154.45924 | 18059 ft | 204 kts | 264° |
| 2026-05-07 00:39 | -33.00411 | 154.44275 | 18018 ft | 206 kts | 264° |
| 2026-05-07 00:40 | -33.00776 | 154.42611 | 17978 ft | 208 kts | 262° |
| 2026-05-07 00:40 | -33.01217 | 154.40965 | 17980 ft | 209 kts | 259° |
| 2026-05-07 00:40 | -33.01713 | 154.39336 | 17982 ft | 209 kts | 258° |
| 2026-05-07 00:40 | -33.02227 | 154.37713 | 17986 ft | 209 kts | 258° |
| 2026-05-07 00:41 | -33.02731 | 154.36091 | 17987 ft | 208 kts | 259° |
| 2026-05-07 00:41 | -33.03216 | 154.34469 | 17986 ft | 208 kts | 259° |
| 2026-05-07 00:41 | -33.03533 | 154.33393 | 17988 ft | 208 kts | 259° |
| 2026-05-07 00:41 | -33.04172 | 154.31243 | 17991 ft | 208 kts | 259° |
| 2026-05-07 00:42 | -33.04666 | 154.29621 | 17993 ft | 208 kts | 258° |
| 2026-05-07 00:42 | -33.05163 | 154.28003 | 17996 ft | 208 kts | 258° |
| 2026-05-07 00:42 | -33.05656 | 154.26379 | 17994 ft | 208 kts | 259° |
| 2026-05-07 00:42 | -33.05986 | 154.25284 | 17992 ft | 208 kts | 259° |
| 2026-05-07 00:43 | -33.06468 | 154.23668 | 17996 ft | 208 kts | 259° |
| 2026-05-07 00:43 | -33.06950 | 154.22060 | 17998 ft | 208 kts | 259° |
| 2026-05-07 00:43 | -33.07438 | 154.20440 | 17998 ft | 207 kts | 259° |
| 2026-05-07 00:43 | -33.07926 | 154.18829 | 17998 ft | 206 kts | 259° |
| 2026-05-07 00:44 | -33.08411 | 154.17225 | 18004 ft | 205 kts | 259° |
| 2026-05-07 00:44 | -33.08892 | 154.15622 | 18001 ft | 205 kts | 259° |
| 2026-05-07 00:44 | -33.09371 | 154.14023 | 18004 ft | 205 kts | 259° |
| 2026-05-07 00:44 | -33.09852 | 154.12422 | 18004 ft | 204 kts | 259° |
| 2026-05-07 00:45 | -33.10331 | 154.10827 | 18005 ft | 204 kts | 259° |
| 2026-05-07 00:45 | -33.10809 | 154.09234 | 18009 ft | 204 kts | 259° |
| 2026-05-07 00:45 | -33.11289 | 154.07640 | 18008 ft | 204 kts | 259° |
| 2026-05-07 00:45 | -33.11760 | 154.06070 | 18008 ft | 204 kts | 259° |
| 2026-05-07 00:46 | -33.12235 | 154.04483 | 18006 ft | 203 kts | 259° |
| 2026-05-07 00:46 | -33.12709 | 154.02894 | 18008 ft | 203 kts | 259° |
| 2026-05-07 00:46 | -33.13184 | 154.01308 | 18009 ft | 203 kts | 259° |
| 2026-05-07 00:46 | -33.13659 | 153.99721 | 18008 ft | 203 kts | 259° |
| 2026-05-07 00:47 | -33.14135 | 153.98134 | 18015 ft | 203 kts | 259° |
| 2026-05-07 00:47 | -33.14610 | 153.96544 | 18013 ft | 204 kts | 259° |
| 2026-05-07 00:47 | -33.15086 | 153.94947 | 18016 ft | 204 kts | 259° |
| 2026-05-07 00:47 | -33.15561 | 153.93355 | 18018 ft | 204 kts | 259° |
| 2026-05-07 00:48 | -33.16038 | 153.91758 | 18020 ft | 204 kts | 259° |
| 2026-05-07 00:48 | -33.16515 | 153.90161 | 18023 ft | 204 kts | 259° |
| 2026-05-07 00:48 | -33.16991 | 153.88565 | 18021 ft | 204 kts | 259° |
| 2026-05-07 00:48 | -33.17460 | 153.86990 | 18027 ft | 204 kts | 259° |
| 2026-05-07 00:49 | -33.17934 | 153.85398 | 18027 ft | 203 kts | 259° |
| 2026-05-07 00:49 | -33.18407 | 153.83806 | 18029 ft | 203 kts | 259° |
| 2026-05-07 00:49 | -33.18880 | 153.82216 | 18031 ft | 203 kts | 259° |
| 2026-05-07 00:49 | -33.19353 | 153.80627 | 18032 ft | 203 kts | 259° |
| 2026-05-07 00:50 | -33.19826 | 153.79035 | 18034 ft | 203 kts | 259° |
| 2026-05-07 00:50 | -33.20296 | 153.77450 | 18034 ft | 203 kts | 259° |
| 2026-05-07 00:50 | -33.20767 | 153.75867 | 18036 ft | 202 kts | 259° |
| 2026-05-07 00:50 | -33.21236 | 153.74282 | 18037 ft | 202 kts | 259° |
| 2026-05-07 00:51 | -33.21704 | 153.72701 | 18038 ft | 202 kts | 259° |
| 2026-05-07 00:51 | -33.22172 | 153.71123 | 18039 ft | 202 kts | 259° |
| 2026-05-07 00:51 | -33.22639 | 153.69546 | 18043 ft | 201 kts | 259° |
| 2026-05-07 00:51 | -33.23108 | 153.67965 | 18042 ft | 201 kts | 259° |
| 2026-05-07 00:52 | -33.23569 | 153.66407 | 18043 ft | 201 kts | 259° |
| 2026-05-07 00:52 | -33.24033 | 153.64833 | 18044 ft | 201 kts | 259° |
| 2026-05-07 00:52 | -33.24498 | 153.63259 | 18046 ft | 201 kts | 259° |
| 2026-05-07 00:52 | -33.24963 | 153.61688 | 18042 ft | 200 kts | 259° |
| 2026-05-07 00:53 | -33.25427 | 153.60122 | 18049 ft | 200 kts | 259° |
| 2026-05-07 00:53 | -33.25887 | 153.58559 | 18048 ft | 199 kts | 259° |
| 2026-05-07 00:53 | -33.26347 | 153.56996 | 18044 ft | 199 kts | 259° |
| 2026-05-07 00:53 | -33.26805 | 153.55441 | 18056 ft | 199 kts | 259° |
| 2026-05-07 00:54 | -33.27264 | 153.53883 | 18058 ft | 198 kts | 259° |
| 2026-05-07 00:54 | -33.27717 | 153.52347 | 18054 ft | 198 kts | 259° |
| 2026-05-07 00:54 | -33.28175 | 153.50794 | 18059 ft | 198 kts | 259° |
| 2026-05-07 00:54 | -33.28631 | 153.49243 | 18058 ft | 198 kts | 259° |
| 2026-05-07 00:55 | -33.29085 | 153.47693 | 18059 ft | 198 kts | 259° |
| 2026-05-07 00:55 | -33.29541 | 153.46138 | 18065 ft | 198 kts | 259° |
| 2026-05-07 00:55 | -33.29997 | 153.44589 | 18063 ft | 198 kts | 259° |
| 2026-05-07 00:55 | -33.30454 | 153.43037 | 18065 ft | 198 kts | 259° |
| 2026-05-07 00:56 | -33.30908 | 153.41489 | 18065 ft | 197 kts | 260° |
| 2026-05-07 00:56 | -33.31363 | 153.39935 | 18066 ft | 197 kts | 260° |
| 2026-05-07 00:56 | -33.31816 | 153.38389 | 18069 ft | 197 kts | 260° |
| 2026-05-07 00:56 | -33.32269 | 153.36840 | 18074 ft | 197 kts | 260° |
| 2026-05-07 00:57 | -33.32722 | 153.35293 | 18071 ft | 197 kts | 260° |
| 2026-05-07 00:57 | -33.33175 | 153.33744 | 18076 ft | 197 kts | 260° |
| 2026-05-07 00:57 | -33.33520 | 153.32207 | 18077 ft | 188 kts | 276° |
| 2026-05-07 00:57 | -33.33152 | 153.30759 | 18081 ft | 182 kts | 296° |
| 2026-05-07 00:58 | -33.32596 | 153.29398 | 18082 ft | 183 kts | 297° |
| 2026-05-07 00:58 | -33.32007 | 153.28042 | 18080 ft | 183 kts | 298° |
| 2026-05-07 00:58 | -33.31414 | 153.26700 | 18081 ft | 183 kts | 298° |
| 2026-05-07 00:58 | -33.30865 | 153.25330 | 18082 ft | 183 kts | 294° |
| 2026-05-07 00:59 | -33.29911 | 153.22501 | 18083 ft | 184 kts | 294° |
| 2026-05-07 00:59 | -33.29410 | 153.21094 | 18082 ft | 184 kts | 295° |
| 2026-05-07 00:59 | -33.28895 | 153.19689 | 18084 ft | 184 kts | 295° |
| 2026-05-07 01:00 | -33.28382 | 153.18282 | 18080 ft | 185 kts | 294° |
| 2026-05-07 01:00 | -33.27880 | 153.16870 | 18085 ft | 185 kts | 294° |
| 2026-05-07 01:00 | -33.27386 | 153.15453 | 18081 ft | 185 kts | 294° |
| 2026-05-07 01:00 | -33.26895 | 153.14052 | 18086 ft | 185 kts | 294° |
| 2026-05-07 01:01 | -33.26392 | 153.12639 | 18082 ft | 185 kts | 294° |
| 2026-05-07 01:01 | -33.25884 | 153.11227 | 18078 ft | 185 kts | 294° |
| 2026-05-07 01:01 | -33.25380 | 153.09822 | 18078 ft | 185 kts | 294° |
| 2026-05-07 01:01 | -33.24875 | 153.08403 | 18079 ft | 184 kts | 294° |
| 2026-05-07 01:02 | -33.24374 | 153.06990 | 18081 ft | 184 kts | 294° |
| 2026-05-07 01:02 | -33.23872 | 153.05578 | 18087 ft | 184 kts | 294° |
| 2026-05-07 01:02 | -33.23370 | 153.04171 | 18086 ft | 184 kts | 294° |
| 2026-05-07 01:02 | -33.22873 | 153.02779 | 18085 ft | 184 kts | 294° |
| 2026-05-07 01:03 | -33.22370 | 153.01374 | 18085 ft | 184 kts | 294° |
| 2026-05-07 01:03 | -33.21868 | 152.99967 | 18091 ft | 184 kts | 294° |
| 2026-05-07 01:03 | -33.21489 | 152.98511 | 18090 ft | 188 kts | 276° |
| 2026-05-07 01:03 | -33.21593 | 152.96945 | 18092 ft | 187 kts | 277° |
| 2026-05-07 01:04 | -33.21242 | 152.95488 | 18097 ft | 183 kts | 292° |
| 2026-05-07 01:04 | -33.20763 | 152.94083 | 18099 ft | 183 kts | 294° |
| 2026-05-07 01:04 | -33.20269 | 152.92677 | 18095 ft | 183 kts | 293° |
| 2026-05-07 01:04 | -33.19813 | 152.91250 | 17997 ft | 187 kts | 291° |
| 2026-05-07 01:05 | -33.19396 | 152.89783 | 17647 ft | 187 kts | 290° |
| 2026-05-07 01:05 | -33.19003 | 152.88308 | 17308 ft | 186 kts | 289° |
| 2026-05-07 01:05 | -33.18608 | 152.86829 | 16968 ft | 186 kts | 289° |
| 2026-05-07 01:05 | -33.18201 | 152.85364 | 16629 ft | 185 kts | 290° |
| 2026-05-07 01:06 | -33.17785 | 152.83912 | 16292 ft | 185 kts | 290° |
| 2026-05-07 01:06 | -33.17371 | 152.82464 | 15972 ft | 184 kts | 290° |
| 2026-05-07 01:06 | -33.16966 | 152.81017 | 15647 ft | 183 kts | 289° |
| 2026-05-07 01:06 | -33.16569 | 152.79576 | 15328 ft | 183 kts | 289° |
| 2026-05-07 01:07 | -33.16170 | 152.78133 | 15012 ft | 182 kts | 289° |
| 2026-05-07 01:07 | -33.15771 | 152.76703 | 14697 ft | 181 kts | 289° |
| 2026-05-07 01:07 | -33.15369 | 152.75279 | 14385 ft | 181 kts | 290° |
| 2026-05-07 01:07 | -33.14974 | 152.73881 | 14084 ft | 180 kts | 289° |
| 2026-05-07 01:08 | -33.14576 | 152.72466 | 13771 ft | 178 kts | 289° |
| 2026-05-07 01:08 | -33.14191 | 152.71085 | 13423 ft | 173 kts | 289° |
| 2026-05-07 01:08 | -33.13814 | 152.69734 | 13082 ft | 170 kts | 289° |
| 2026-05-07 01:08 | -33.13441 | 152.68404 | 12741 ft | 168 kts | 289° |
| 2026-05-07 01:09 | -33.13070 | 152.67088 | 12406 ft | 166 kts | 289° |
| 2026-05-07 01:09 | -33.12703 | 152.65783 | 12073 ft | 165 kts | 289° |
| 2026-05-07 01:09 | -33.12339 | 152.64487 | 11748 ft | 165 kts | 289° |
| 2026-05-07 01:09 | -33.11975 | 152.63196 | 11426 ft | 164 kts | 289° |
| 2026-05-07 01:10 | -33.11612 | 152.61909 | 11107 ft | 163 kts | 288° |
| 2026-05-07 01:10 | -33.11253 | 152.60628 | 10792 ft | 163 kts | 288° |
| 2026-05-07 01:10 | -33.10893 | 152.59344 | 10476 ft | 163 kts | 288° |
| 2026-05-07 01:10 | -33.10534 | 152.58069 | 10170 ft | 162 kts | 288° |
| 2026-05-07 01:11 | -33.10172 | 152.56791 | 9849 ft | 162 kts | 288° |
| 2026-05-07 01:11 | -33.09813 | 152.55523 | 9513 ft | 162 kts | 288° |
| 2026-05-07 01:11 | -33.09454 | 152.54252 | 9170 ft | 161 kts | 288° |
| 2026-05-07 01:11 | -33.09094 | 152.52983 | 8831 ft | 162 kts | 288° |
| 2026-05-07 01:12 | -33.08733 | 152.51713 | 8503 ft | 162 kts | 288° |
| 2026-05-07 01:12 | -33.08376 | 152.50458 | 8173 ft | 162 kts | 288° |
| 2026-05-07 01:12 | -33.08016 | 152.49196 | 7939 ft | 156 kts | 288° |
| 2026-05-07 01:12 | -33.07667 | 152.47982 | 7689 ft | 154 kts | 288° |
| 2026-05-07 01:13 | -33.07319 | 152.46773 | 7440 ft | 154 kts | 288° |
| 2026-05-07 01:13 | -33.06971 | 152.45566 | 7174 ft | 154 kts | 288° |
| 2026-05-07 01:13 | -33.06622 | 152.44361 | 6928 ft | 153 kts | 288° |
| 2026-05-07 01:13 | -33.06268 | 152.43164 | 6687 ft | 153 kts | 288° |
| 2026-05-07 01:14 | -33.05907 | 152.41967 | 6451 ft | 153 kts | 288° |
| 2026-05-07 01:14 | -33.05540 | 152.40769 | 6185 ft | 153 kts | 288° |
| 2026-05-07 01:14 | -33.05170 | 152.39585 | 5986 ft | 151 kts | 288° |
| 2026-05-07 01:14 | -33.04797 | 152.38423 | 5774 ft | 150 kts | 288° |
| 2026-05-07 01:15 | -33.04420 | 152.37270 | 5580 ft | 149 kts | 287° |
| 2026-05-07 01:15 | -33.04047 | 152.36123 | 5372 ft | 148 kts | 288° |
| 2026-05-07 01:15 | -33.03671 | 152.34982 | 5162 ft | 147 kts | 287° |
| 2026-05-07 01:15 | -33.03291 | 152.33854 | 4962 ft | 146 kts | 287° |
| 2026-05-07 01:16 | -33.02908 | 152.32738 | 4761 ft | 146 kts | 287° |
| 2026-05-07 01:16 | -33.02518 | 152.31635 | 4556 ft | 145 kts | 288° |
| 2026-05-07 01:16 | -33.02125 | 152.30533 | 4354 ft | 144 kts | 288° |
| 2026-05-07 01:16 | -33.01730 | 152.29436 | 4149 ft | 144 kts | 288° |
| 2026-05-07 01:17 | -33.01337 | 152.28356 | 4044 ft | 139 kts | 288° |
| 2026-05-07 01:17 | -33.00951 | 152.27309 | 3941 ft | 137 kts | 288° |
| 2026-05-07 01:17 | -33.00573 | 152.26288 | 3917 ft | 130 kts | 288° |
| 2026-05-07 01:17 | -33.00214 | 152.25343 | 4015 ft | 121 kts | 288° |
| 2026-05-07 01:18 | -32.99888 | 152.24413 | 4007 ft | 120 kts | 277° |
| 2026-05-07 01:18 | -33.00016 | 152.23458 | 4006 ft | 118 kts | 264° |
| 2026-05-07 01:18 | -32.99997 | 152.22489 | 4055 ft | 115 kts | 271° |
| 2026-05-07 01:18 | -32.99895 | 152.21494 | 3896 ft | 126 kts | 275° |
| 2026-05-07 01:19 | -32.99729 | 152.20444 | 3744 ft | 131 kts | 277° |
| 2026-05-07 01:19 | -32.99525 | 152.19371 | 3594 ft | 134 kts | 280° |
| 2026-05-07 01:19 | -32.99263 | 152.18279 | 3443 ft | 148 kts | 283° |
| 2026-05-07 01:19 | -32.98919 | 152.17051 | 3296 ft | 156 kts | 285° |
| 2026-05-07 01:20 | -32.98554 | 152.15864 | 3134 ft | 150 kts | 286° |
| 2026-05-07 01:20 | -32.98205 | 152.14710 | 3105 ft | 151 kts | 285° |
| 2026-05-07 01:20 | -32.97929 | 152.13749 | 3105 ft | 155 kts | 285° |
| 2026-05-07 01:20 | -32.97586 | 152.12510 | 3106 ft | 159 kts | 284° |
| 2026-05-07 01:21 | -32.97237 | 152.11255 | 3107 ft | 161 kts | 284° |
| 2026-05-07 01:21 | -32.96876 | 152.09988 | 3108 ft | 162 kts | 285° |
| 2026-05-07 01:21 | -32.96513 | 152.08733 | 3110 ft | 163 kts | 285° |
| 2026-05-07 01:21 | -32.96142 | 152.07453 | 3111 ft | 164 kts | 285° |
| 2026-05-07 01:22 | -32.95792 | 152.06167 | 3114 ft | 164 kts | 286° |
| 2026-05-07 01:22 | -32.95120 | 152.05049 | 3114 ft | 170 kts | 307° |
| 2026-05-07 01:22 | -32.94300 | 152.04027 | 3104 ft | 170 kts | 307° |
| 2026-05-07 01:22 | -32.93525 | 152.03029 | 3095 ft | 159 kts | 305° |
| 2026-05-07 01:23 | -32.92824 | 152.02048 | 3087 ft | 153 kts | 303° |
| 2026-05-07 01:23 | -32.92159 | 152.01076 | 3085 ft | 149 kts | 303° |
| 2026-05-07 01:23 | -32.91502 | 152.00129 | 3088 ft | 148 kts | 304° |
| 2026-05-07 01:23 | -32.90841 | 151.99221 | 2943 ft | 132 kts | 305° |
| 2026-05-07 01:24 | -32.90294 | 151.98487 | 2746 ft | 107 kts | 301° |
| 2026-05-07 01:24 | -32.89818 | 151.97819 | 2560 ft | 112 kts | 301° |
| 2026-05-07 01:24 | -32.89320 | 151.97071 | 2398 ft | 120 kts | 302° |
| 2026-05-07 01:24 | -32.88795 | 151.96313 | 2246 ft | 118 kts | 304° |
| 2026-05-07 01:25 | -32.88273 | 151.95588 | 2095 ft | 113 kts | 305° |
| 2026-05-07 01:25 | -32.87757 | 151.94899 | 1972 ft | 110 kts | 306° |
| 2026-05-07 01:25 | -32.87247 | 151.94222 | 1847 ft | 109 kts | 305° |
| 2026-05-07 01:25 | -32.86758 | 151.93545 | 1737 ft | 107 kts | 303° |
| 2026-05-07 01:26 | -32.86292 | 151.92872 | 1620 ft | 104 kts | 302° |
| 2026-05-07 01:26 | -32.85840 | 151.92213 | 1537 ft | 102 kts | 303° |
| 2026-05-07 01:26 | -32.85391 | 151.91570 | 1454 ft | 101 kts | 303° |
| 2026-05-07 01:26 | -32.84938 | 151.90932 | 1380 ft | 101 kts | 304° |
| 2026-05-07 01:27 | -32.84477 | 151.90296 | 1300 ft | 103 kts | 305° |
| 2026-05-07 01:27 | -32.84000 | 151.89648 | 1191 ft | 105 kts | 304° |
| 2026-05-07 01:27 | -32.83517 | 151.88996 | 1079 ft | 106 kts | 303° |
| 2026-05-07 01:27 | -32.83049 | 151.88342 | 934 ft | 96 kts | 302° |
| 2026-05-07 01:28 | -32.82646 | 151.87750 | 750 ft | 88 kts | 304° |
| 2026-05-07 01:28 | -32.82240 | 151.87160 | 635 ft | 92 kts | 304° |
| 2026-05-07 01:28 | -32.81835 | 151.86592 | 479 ft | 93 kts | 305° |
| 2026-05-07 01:28 | -32.81420 | 151.86014 | 333 ft | 90 kts | 307° |
| 2026-05-07 01:29 | -32.81020 | 151.85468 | 215 ft | 86 kts | 306° |
| 2026-05-07 01:29 | -32.80623 | 151.84918 | 71 ft | 88 kts | 306° |
| 2026-05-07 01:29 | -32.80243 | 151.84393 | 20 ft | 69 kts | 305° |
| 2026-05-07 01:29 | -32.80011 | 151.84066 | 23 ft | 38 kts | 312° |
| 2026-05-07 01:30 | -32.79886 | 151.83894 | 26 ft | 18 kts | 317° |
| 2026-05-07 01:30 | -32.79859 | 151.83859 | 24 ft | 6 kts | 241° |
| 2026-05-07 01:30 | -32.79995 | 151.83840 | 24 ft | 23 kts | 189° |
| 2026-05-07 01:30 | -32.80139 | 151.83822 | 23 ft | 19 kts | 163° |
| 2026-05-07 01:31 | -32.80233 | 151.83918 | 23 ft | 18 kts | 133° |
| 2026-05-07 01:31 | -32.80288 | 151.83990 | 22 ft | 18 kts | 130° |
| 2026-05-07 01:31 | -32.80369 | 151.84103 | 22 ft | 18 kts | 130° |
| 2026-05-07 01:31 | -32.80448 | 151.84184 | 21 ft | 13 kts | 223° |
| 2026-05-07 01:32 | -32.80535 | 151.84158 | 21 ft | 8 kts | 175° |
| 2026-05-07 01:32 | -32.80536 | 151.84172 | 21 ft | 0 kts | 36° |
| 2026-05-07 01:35 | -32.80536 | 151.84171 | 21 ft | 0 kts | 36° |
| 2026-05-07 01:35 | -32.80537 | 151.84171 | 21 ft | 0 kts | 36° |
| 2026-05-07 01:37 | -32.80513 | 151.84198 | 21 ft | 0 kts | 225° |
| 2026-05-07 01:37 | -32.80513 | 151.84199 | 21 ft | 0 kts | 225° |
| 2026-05-07 01:41 | -32.80512 | 151.84199 | 21 ft | 0 kts | 225° |
| 2026-05-07 01:42 | -32.80512 | 151.84200 | 21 ft | 0 kts | 225° |
| 2026-05-07 01:45 | -32.80511 | 151.84200 | 21 ft | 0 kts | 225° |
| 2026-05-07 01:46 | -32.80511 | 151.84201 | 21 ft | 0 kts | 225° |
| 2026-05-07 01:50 | -32.80511 | 151.84202 | 21 ft | 0 kts | 225° |
| 2026-05-07 01:50 | -32.80510 | 151.84202 | 21 ft | 0 kts | 225° |
| 2026-05-07 01:54 | -32.80510 | 151.84203 | 21 ft | 0 kts | 225° |
| 2026-05-07 01:55 | -32.80509 | 151.84203 | 21 ft | 0 kts | 225° |
| 2026-05-07 01:57 | -32.80519 | 151.84190 | 21 ft | 0 kts | 232° |
| 2026-05-07 01:58 | -32.80521 | 151.84187 | 21 ft | 5 kts | 254° |
| 2026-05-07 01:58 | -32.80454 | 151.84288 | 21 ft | 29 kts | 50° |
| 2026-05-07 01:58 | -32.80312 | 151.84425 | 20 ft | 25 kts | 2° |
| 2026-05-07 01:59 | -32.80190 | 151.84317 | 20 ft | 34 kts | 311° |
| 2026-05-07 01:59 | -32.79873 | 151.83876 | 35 ft | 99 kts | 309° |
| 2026-05-07 01:59 | -32.79392 | 151.83243 | 459 ft | 100 kts | 307° |
| 2026-05-07 01:59 | -32.79052 | 151.82544 | 1005 ft | 93 kts | 279° |
| 2026-05-07 02:00 | -32.78989 | 151.81727 | 1433 ft | 108 kts | 273° |
| 2026-05-07 02:00 | -32.79292 | 151.80885 | 1758 ft | 128 kts | 233° |
| 2026-05-07 02:00 | -32.80061 | 151.80259 | 2174 ft | 137 kts | 216° |
| 2026-05-07 02:00 | -32.80917 | 151.79798 | 2672 ft | 135 kts | 210° |
| 2026-05-07 02:01 | -32.81833 | 151.79410 | 2999 ft | 143 kts | 216° |
| 2026-05-07 02:01 | -32.82705 | 151.78880 | 2945 ft | 136 kts | 217° |
| 2026-05-07 02:01 | -32.83481 | 151.78394 | 2972 ft | 123 kts | 217° |
| 2026-05-07 02:01 | -32.84239 | 151.77937 | 2963 ft | 125 kts | 217° |
| 2026-05-07 02:02 | -32.85044 | 151.77543 | 3084 ft | 125 kts | 206° |
| 2026-05-07 02:02 | -32.85954 | 151.77459 | 3098 ft | 141 kts | 181° |
| 2026-05-07 02:02 | -32.86889 | 151.77687 | 2869 ft | 129 kts | 203° |
| 2026-05-07 02:02 | -32.87808 | 151.77298 | 2592 ft | 150 kts | 198° |
| 2026-05-07 02:03 | -32.88760 | 151.77049 | 2720 ft | 129 kts | 215° |
| 2026-05-07 02:03 | -32.89478 | 151.76560 | 2975 ft | 113 kts | 222° |
| 2026-05-07 02:03 | -32.90182 | 151.76056 | 2961 ft | 123 kts | 220° |
| 2026-05-07 02:03 | -32.90939 | 151.75592 | 3100 ft | 122 kts | 211° |
| 2026-05-07 02:04 | -32.91757 | 151.75244 | 3079 ft | 128 kts | 215° |
| 2026-05-07 02:04 | -32.92520 | 151.74690 | 3076 ft | 127 kts | 224° |
| 2026-05-07 02:04 | -32.93261 | 151.74089 | 3050 ft | 133 kts | 222° |
| 2026-05-07 02:04 | -32.94047 | 151.73474 | 3013 ft | 137 kts | 221° |
| 2026-05-07 02:05 | -32.94849 | 151.72860 | 3010 ft | 137 kts | 221° |
| 2026-05-07 02:05 | -32.95651 | 151.72248 | 3008 ft | 135 kts | 221° |
| 2026-05-07 02:05 | -32.96438 | 151.71649 | 3007 ft | 134 kts | 220° |
| 2026-05-07 02:05 | -32.97246 | 151.71023 | 3010 ft | 144 kts | 221° |
| 2026-05-07 02:06 | -32.98112 | 151.70333 | 3011 ft | 155 kts | 221° |
| 2026-05-07 02:06 | -32.99013 | 151.69605 | 3017 ft | 162 kts | 221° |
| 2026-05-07 02:06 | -32.99955 | 151.68841 | 3012 ft | 164 kts | 221° |
| 2026-05-07 02:06 | -33.00904 | 151.68078 | 3018 ft | 166 kts | 221° |
| 2026-05-07 02:07 | -33.01869 | 151.67300 | 3011 ft | 168 kts | 221° |
| 2026-05-07 02:07 | -33.03796 | 151.65725 | 3015 ft | 168 kts | 221° |
| 2026-05-07 02:07 | -33.04749 | 151.64936 | 3009 ft | 168 kts | 221° |
| 2026-05-07 02:08 | -33.05703 | 151.64125 | 3009 ft | 167 kts | 222° |
| 2026-05-07 02:08 | -33.06654 | 151.63324 | 3003 ft | 167 kts | 221° |
| 2026-05-07 02:08 | -33.07612 | 151.62536 | 3016 ft | 168 kts | 221° |
| 2026-05-07 02:08 | -33.08571 | 151.61746 | 3007 ft | 167 kts | 221° |
| 2026-05-07 02:09 | -33.09525 | 151.60966 | 3010 ft | 166 kts | 221° |
| 2026-05-07 02:09 | -33.10476 | 151.60189 | 3012 ft | 166 kts | 222° |
| 2026-05-07 02:09 | -33.11416 | 151.59393 | 3004 ft | 166 kts | 221° |
| 2026-05-07 02:09 | -33.12362 | 151.58600 | 3019 ft | 166 kts | 221° |
| 2026-05-07 02:10 | -33.13320 | 151.57811 | 3012 ft | 167 kts | 221° |
| 2026-05-07 02:10 | -33.14271 | 151.57017 | 3024 ft | 167 kts | 221° |
| 2026-05-07 02:10 | -33.15222 | 151.56229 | 3005 ft | 169 kts | 221° |
| 2026-05-07 02:10 | -33.16193 | 151.55422 | 3015 ft | 167 kts | 220° |
| 2026-05-07 02:11 | -33.17142 | 151.54641 | 3016 ft | 167 kts | 221° |
| 2026-05-07 02:11 | -33.18100 | 151.53844 | 3017 ft | 168 kts | 220° |
| 2026-05-07 02:11 | -33.19060 | 151.53046 | 3012 ft | 168 kts | 220° |
| 2026-05-07 02:11 | -33.20021 | 151.52248 | 3017 ft | 169 kts | 220° |
| 2026-05-07 02:12 | -33.20985 | 151.51445 | 3023 ft | 168 kts | 221° |
| 2026-05-07 02:12 | -33.21951 | 151.50636 | 3016 ft | 170 kts | 220° |
| 2026-05-07 02:12 | -33.22910 | 151.49830 | 3006 ft | 168 kts | 220° |
| 2026-05-07 02:12 | -33.23873 | 151.49041 | 3012 ft | 168 kts | 220° |
| 2026-05-07 02:13 | -33.24837 | 151.48243 | 3018 ft | 168 kts | 220° |
| 2026-05-07 02:13 | -33.25793 | 151.47439 | 3016 ft | 168 kts | 220° |
| 2026-05-07 02:13 | -33.26753 | 151.46641 | 3012 ft | 167 kts | 220° |
| 2026-05-07 02:13 | -33.27708 | 151.45843 | 3016 ft | 167 kts | 220° |
| 2026-05-07 02:14 | -33.28665 | 151.45049 | 3015 ft | 167 kts | 220° |
| 2026-05-07 02:14 | -33.29616 | 151.44252 | 3005 ft | 167 kts | 220° |
| 2026-05-07 02:14 | -33.30566 | 151.43457 | 3013 ft | 166 kts | 220° |
| 2026-05-07 02:14 | -33.31518 | 151.42670 | 3012 ft | 166 kts | 220° |
| 2026-05-07 02:15 | -33.32467 | 151.41877 | 3010 ft | 166 kts | 221° |
| 2026-05-07 02:15 | -33.33406 | 151.41095 | 3015 ft | 167 kts | 221° |
| 2026-05-07 02:15 | -33.34358 | 151.40300 | 3010 ft | 166 kts | 221° |
| 2026-05-07 02:15 | -33.35301 | 151.39503 | 3010 ft | 166 kts | 221° |
| 2026-05-07 02:16 | -33.36250 | 151.38703 | 3008 ft | 166 kts | 220° |
| 2026-05-07 02:16 | -33.37199 | 151.37912 | 3021 ft | 167 kts | 220° |
| 2026-05-07 02:16 | -33.38167 | 151.37119 | 3018 ft | 170 kts | 220° |
| 2026-05-07 02:16 | -33.39138 | 151.36307 | 3010 ft | 171 kts | 219° |
| 2026-05-07 02:17 | -33.40106 | 151.35497 | 3018 ft | 170 kts | 220° |
| 2026-05-07 02:17 | -33.40745 | 151.34962 | 3016 ft | 170 kts | 221° |
| 2026-05-07 02:17 | -33.42047 | 151.33858 | 3017 ft | 171 kts | 220° |
| 2026-05-07 02:17 | -33.43024 | 151.33050 | 3013 ft | 170 kts | 220° |
| 2026-05-07 02:18 | -33.43669 | 151.32518 | 3007 ft | 169 kts | 220° |
| 2026-05-07 02:18 | -33.44624 | 151.31712 | 3001 ft | 166 kts | 220° |
| 2026-05-07 02:18 | -33.45564 | 151.30924 | 2999 ft | 165 kts | 220° |
| 2026-05-07 02:18 | -33.46812 | 151.29872 | 3012 ft | 165 kts | 219° |
| 2026-05-07 02:19 | -33.47747 | 151.29090 | 3006 ft | 162 kts | 220° |
| 2026-05-07 02:19 | -33.48372 | 151.28571 | 3011 ft | 162 kts | 220° |
| 2026-05-07 02:19 | -33.49598 | 151.27534 | 3013 ft | 164 kts | 219° |
| 2026-05-07 02:19 | -33.50230 | 151.27004 | 3008 ft | 164 kts | 220° |
| 2026-05-07 02:20 | -33.51149 | 151.26246 | 3015 ft | 164 kts | 220° |
| 2026-05-07 02:20 | -33.52100 | 151.25450 | 3012 ft | 164 kts | 220° |
| 2026-05-07 02:20 | -33.53031 | 151.24662 | 3018 ft | 164 kts | 221° |
| 2026-05-07 02:20 | -33.53956 | 151.23878 | 3015 ft | 164 kts | 221° |
| 2026-05-07 02:21 | -33.54890 | 151.23095 | 3015 ft | 164 kts | 221° |
| 2026-05-07 02:21 | -33.55813 | 151.22311 | 3018 ft | 162 kts | 220° |
| 2026-05-07 02:21 | -33.56737 | 151.21534 | 3012 ft | 163 kts | 220° |
| 2026-05-07 02:21 | -33.57673 | 151.20780 | 3011 ft | 162 kts | 220° |
| 2026-05-07 02:22 | -33.58588 | 151.20002 | 3018 ft | 160 kts | 221° |
| 2026-05-07 02:22 | -33.59510 | 151.19210 | 3016 ft | 165 kts | 221° |
| 2026-05-07 02:22 | -33.60444 | 151.18415 | 3009 ft | 163 kts | 221° |
| 2026-05-07 02:22 | -33.61371 | 151.17633 | 3018 ft | 163 kts | 220° |
| 2026-05-07 02:23 | -33.62321 | 151.16860 | 3006 ft | 166 kts | 220° |
| 2026-05-07 02:23 | -33.63258 | 151.16074 | 3010 ft | 162 kts | 220° |
| 2026-05-07 02:23 | -33.64173 | 151.15295 | 2999 ft | 160 kts | 220° |
| 2026-05-07 02:23 | -33.65077 | 151.14525 | 3009 ft | 159 kts | 221° |
| 2026-05-07 02:24 | -33.65991 | 151.13751 | 3006 ft | 162 kts | 220° |
| 2026-05-07 02:24 | -33.66849 | 151.13030 | 2997 ft | 162 kts | 220° |
| 2026-05-07 02:24 | -33.67757 | 151.12266 | 3000 ft | 161 kts | 219° |
| 2026-05-07 02:24 | -33.68681 | 151.11489 | 2999 ft | 162 kts | 220° |
| 2026-05-07 02:25 | -33.69604 | 151.10719 | 3009 ft | 162 kts | 220° |
| 2026-05-07 02:25 | -33.70530 | 151.09932 | 3004 ft | 163 kts | 220° |
| 2026-05-07 02:25 | -33.71461 | 151.09150 | 3014 ft | 164 kts | 220° |
| 2026-05-07 02:25 | -33.72396 | 151.08357 | 3012 ft | 165 kts | 220° |
| 2026-05-07 02:26 | -33.73335 | 151.07555 | 3016 ft | 165 kts | 219° |
| 2026-05-07 02:26 | -33.74280 | 151.06776 | 3014 ft | 164 kts | 220° |
| 2026-05-07 02:26 | -33.74943 | 151.05709 | 3014 ft | 160 kts | 244° |
| 2026-05-07 02:26 | -33.75437 | 151.04527 | 3012 ft | 160 kts | 245° |
| 2026-05-07 02:27 | -33.75927 | 151.03325 | 3010 ft | 160 kts | 245° |
| 2026-05-07 02:27 | -33.76438 | 151.02138 | 3012 ft | 160 kts | 243° |
| 2026-05-07 02:27 | -33.76990 | 151.00975 | 3016 ft | 161 kts | 241° |
| 2026-05-07 02:27 | -33.77571 | 150.99831 | 3010 ft | 159 kts | 239° |
| 2026-05-07 02:28 | -33.78164 | 150.98701 | 3012 ft | 160 kts | 239° |
| 2026-05-07 02:28 | -33.78746 | 150.97554 | 3011 ft | 161 kts | 240° |
| 2026-05-07 02:28 | -33.79309 | 150.96399 | 3011 ft | 158 kts | 240° |
| 2026-05-07 02:28 | -33.79866 | 150.95266 | 3014 ft | 158 kts | 240° |
| 2026-05-07 02:29 | -33.80431 | 150.94139 | 3025 ft | 158 kts | 240° |
| 2026-05-07 02:29 | -33.80998 | 150.93006 | 3016 ft | 158 kts | 241° |
| 2026-05-07 02:29 | -33.81625 | 150.91981 | 3244 ft | 147 kts | 224° |
| 2026-05-07 02:29 | -33.82502 | 150.91385 | 2205 ft | 174 kts | 194° |
| 2026-05-07 02:30 | -33.83637 | 150.91971 | 1748 ft | 174 kts | 147° |
| 2026-05-07 02:30 | -33.84432 | 150.92883 | 1630 ft | 144 kts | 145° |
| 2026-05-07 02:30 | -33.85102 | 150.93772 | 1531 ft | 146 kts | 142° |
| 2026-05-07 02:30 | -33.85775 | 150.94758 | 1426 ft | 157 kts | 136° |
| 2026-05-07 02:31 | -33.86420 | 150.95839 | 1442 ft | 162 kts | 133° |
| 2026-05-07 02:31 | -33.87068 | 150.96982 | 1428 ft | 170 kts | 132° |
| 2026-05-07 02:31 | -33.87755 | 150.98065 | 1556 ft | 160 kts | 137° |
| 2026-05-07 02:31 | -33.88411 | 150.99130 | 1513 ft | 155 kts | 135° |
| 2026-05-07 02:32 | -33.88977 | 151.00173 | 1281 ft | 145 kts | 128° |
| 2026-05-07 02:32 | -33.89453 | 151.01210 | 1225 ft | 142 kts | 127° |
| 2026-05-07 02:32 | -33.89947 | 151.02278 | 1194 ft | 149 kts | 129° |
| 2026-05-07 02:32 | -33.90472 | 151.03381 | 1189 ft | 156 kts | 128° |
| 2026-05-07 02:33 | -33.91184 | 151.04312 | 1135 ft | 140 kts | 165° |
| 2026-05-07 02:33 | -33.92043 | 151.04526 | 989 ft | 116 kts | 199° |
| 2026-05-07 02:33 | -33.92672 | 151.04135 | 843 ft | 102 kts | 232° |
| 2026-05-07 02:33 | -33.93165 | 151.03491 | 752 ft | 105 kts | 233° |
| 2026-05-07 02:34 | -33.93585 | 151.02788 | 653 ft | 104 kts | 241° |
| 2026-05-07 02:34 | -33.93716 | 151.02030 | 598 ft | 90 kts | 270° |
| 2026-05-07 02:34 | -33.93591 | 151.01271 | 452 ft | 96 kts | 287° |
| 2026-05-07 02:34 | -33.93228 | 151.00642 | 290 ft | 90 kts | 291° |
| 2026-05-07 02:35 | -33.92906 | 151.00045 | 138 ft | 84 kts | 290° |
| 2026-05-07 02:35 | -33.92576 | 150.99460 | 34 ft | 85 kts | 295° |
| 2026-05-07 02:35 | -33.92325 | 150.99003 | 24 ft | 47 kts | 302° |
| 2026-05-07 02:35 | -33.92183 | 150.98754 | 24 ft | 25 kts | 301° |
| 2026-05-07 02:36 | -33.92119 | 150.98654 | 24 ft | 20 kts | 291° |
| 2026-05-07 02:36 | -33.92051 | 150.98507 | 24 ft | 15 kts | 322° |
| 2026-05-07 02:36 | -33.91944 | 150.98491 | 24 ft | 17 kts | 358° |
| 2026-05-07 02:36 | -33.91838 | 150.98533 | 25 ft | 16 kts | 79° |
| 2026-05-07 02:37 | -33.91871 | 150.98632 | 25 ft | 13 kts | 122° |
| 2026-05-07 02:37 | -33.91933 | 150.98691 | 24 ft | 11 kts | 178° |
| 2026-05-07 02:37 | -33.91979 | 150.98751 | 24 ft | 10 kts | 123° |
| 2026-05-07 02:37 | -33.92037 | 150.98854 | 25 ft | 19 kts | 122° |
| 2026-05-07 02:38 | -33.92123 | 150.99011 | 25 ft | 21 kts | 108° |
| 2026-05-07 02:38 | -33.92074 | 150.99056 | 25 ft | 0 kts | 45° |
| 2026-05-07 02:38 | -33.92044 | 150.99140 | 25 ft | 23 kts | 67° |
| 2026-05-07 02:38 | -33.91985 | 150.99316 | 25 ft | 24 kts | 69° |
| 2026-05-07 02:39 | -33.91927 | 150.99515 | 25 ft | 25 kts | 71° |
| 2026-05-07 02:39 | -33.91840 | 150.99594 | 25 ft | 14 kts | 332° |
| 2026-05-07 02:39 | -33.91791 | 150.99506 | 25 ft | 11 kts | 276° |
| 2026-05-07 02:39 | -33.91786 | 150.99446 | 25 ft | 4 kts | 10° |
| 2026-05-07 02:40 | -33.91781 | 150.99449 | 25 ft | 0 kts | 33° |